Ridgeville, Ohio
Current Conditions -  °F | °C
As of 6:53 PM on Wednesday 22 Oct 2014 (Local Time) from KLPR Reporting Station
Overcast Overcast  
Wind Chill: 48°   Ceiling: 3900
Heat Index: 48°   Visibility: 10mi
Dew Point: 43°   Wind: 3mph
Humidity: 83%   Direction: 340°NNW
Pressure: 30.26"   Gusts: NA
Location:  41.3603°N, 82.1314°W
Report Text: KLPR 222253Z AUTO 34003KT 10SM OVC039 09/06 A3026 RMK AO2 SLP249 T00890061 TSNO
Loading
Personal Weather Stations






























Interactive Weather Map
Tropical Storm Tracking
New forecast layout! Learn more

10-Day Weather Forecast

Advertisements
Track Severe Weather on mobile